sensor_id;sensor_type;location;lat;lon;timestamp;P1;durP1;ratioP1;P2;durP2;ratioP2
77278;SDS011;66332;50.436;15.378;2023-03-21T00:07:49;23.45;;;12.73;;
77278;SDS011;66332;50.436;15.378;2023-03-21T00:12:30;24.10;;;12.55;;
77278;SDS011;66332;50.436;15.378;2023-03-21T00:17:12;21.83;;;11.88;;
77278;SDS011;66332;50.436;15.378;2023-03-21T00:21:55;20.38;;;10.75;;
77278;SDS011;66332;50.436;15.378;2023-03-21T00:26:37;20.95;;;11.13;;
77278;SDS011;66332;50.436;15.378;2023-03-21T00:31:18;19.58;;;11.30;;
77278;SDS011;66332;50.436;15.378;2023-03-21T00:36:00;19.70;;;11.18;;
77278;SDS011;66332;50.436;15.378;2023-03-21T00:40:42;20.52;;;11.15;;
77278;SDS011;66332;50.436;15.378;2023-03-21T00:45:22;18.95;;;10.35;;
77278;SDS011;66332;50.436;15.378;2023-03-21T00:50:03;20.02;;;10.43;;
77278;SDS011;66332;50.436;15.378;2023-03-21T00:54:45;20.88;;;10.80;;
77278;SDS011;66332;50.436;15.378;2023-03-21T00:59:26;22.17;;;10.68;;
77278;SDS011;66332;50.436;15.378;2023-03-21T01:04:07;22.98;;;11.45;;
77278;SDS011;66332;50.436;15.378;2023-03-21T01:08:53;23.63;;;10.98;;
77278;SDS011;66332;50.436;15.378;2023-03-21T01:18:16;21.48;;;9.23;;
77278;SDS011;66332;50.436;15.378;2023-03-21T01:22:58;22.40;;;10.20;;
77278;SDS011;66332;50.436;15.378;2023-03-21T01:27:39;19.83;;;10.82;;
77278;SDS011;66332;50.436;15.378;2023-03-21T01:32:20;21.90;;;11.45;;
77278;SDS011;66332;50.436;15.378;2023-03-21T01:37:01;21.17;;;10.75;;
77278;SDS011;66332;50.436;15.378;2023-03-21T01:41:42;21.63;;;11.43;;
77278;SDS011;66332;50.436;15.378;2023-03-21T01:51:15;19.17;;;10.43;;
77278;SDS011;66332;50.436;15.378;2023-03-21T01:56:00;22.15;;;11.15;;
77278;SDS011;66332;50.436;15.378;2023-03-21T02:00:49;17.67;;;10.02;;
77278;SDS011;66332;50.436;15.378;2023-03-21T02:06:09;20.38;;;10.15;;
77278;SDS011;66332;50.436;15.378;2023-03-21T02:10:55;21.80;;;10.45;;
77278;SDS011;66332;50.436;15.378;2023-03-21T02:15:45;21.92;;;11.38;;
77278;SDS011;66332;50.436;15.378;2023-03-21T02:20:45;22.75;;;11.88;;
77278;SDS011;66332;50.436;15.378;2023-03-21T02:41:05;19.77;;;10.93;;
77278;SDS011;66332;50.436;15.378;2023-03-21T02:46:07;20.15;;;11.00;;
77278;SDS011;66332;50.436;15.378;2023-03-21T02:51:01;24.65;;;11.25;;
77278;SDS011;66332;50.436;15.378;2023-03-21T03:02:08;24.27;;;11.35;;
77278;SDS011;66332;50.436;15.378;2023-03-21T03:11:45;22.73;;;11.55;;
77278;SDS011;66332;50.436;15.378;2023-03-21T03:21:43;23.25;;;11.95;;
77278;SDS011;66332;50.436;15.378;2023-03-21T03:31:23;21.25;;;11.38;;
77278;SDS011;66332;50.436;15.378;2023-03-21T03:36:09;24.20;;;11.90;;
77278;SDS011;66332;50.436;15.378;2023-03-21T03:40:54;22.20;;;11.63;;
77278;SDS011;66332;50.436;15.378;2023-03-21T03:45:46;23.33;;;11.43;;
77278;SDS011;66332;50.436;15.378;2023-03-21T03:50:30;24.00;;;12.48;;
77278;SDS011;66332;50.436;15.378;2023-03-21T03:55:18;23.58;;;11.55;;
77278;SDS011;66332;50.436;15.378;2023-03-21T04:00:02;24.80;;;12.10;;
77278;SDS011;66332;50.436;15.378;2023-03-21T04:04:45;23.13;;;12.10;;
77278;SDS011;66332;50.436;15.378;2023-03-21T04:09:27;24.63;;;11.38;;
77278;SDS011;66332;50.436;15.378;2023-03-21T04:14:08;25.40;;;12.48;;
77278;SDS011;66332;50.436;15.378;2023-03-21T04:18:49;24.55;;;12.52;;
77278;SDS011;66332;50.436;15.378;2023-03-21T04:23:30;23.35;;;12.20;;
77278;SDS011;66332;50.436;15.378;2023-03-21T04:28:12;24.85;;;12.43;;
77278;SDS011;66332;50.436;15.378;2023-03-21T04:32:53;23.08;;;11.45;;
77278;SDS011;66332;50.436;15.378;2023-03-21T04:37:36;25.33;;;12.57;;
77278;SDS011;66332;50.436;15.378;2023-03-21T04:42:18;24.42;;;12.82;;
77278;SDS011;66332;50.436;15.378;2023-03-21T04:46:59;23.60;;;11.55;;
77278;SDS011;66332;50.436;15.378;2023-03-21T04:51:40;23.15;;;12.00;;
77278;SDS011;66332;50.436;15.378;2023-03-21T04:56:24;21.17;;;10.85;;
77278;SDS011;66332;50.436;15.378;2023-03-21T05:01:11;20.90;;;11.07;;
77278;SDS011;66332;50.436;15.378;2023-03-21T05:05:53;25.40;;;10.82;;
77278;SDS011;66332;50.436;15.378;2023-03-21T05:10:35;20.33;;;10.63;;
77278;SDS011;66332;50.436;15.378;2023-03-21T05:15:15;22.00;;;11.32;;
77278;SDS011;66332;50.436;15.378;2023-03-21T05:19:57;22.02;;;11.18;;
77278;SDS011;66332;50.436;15.378;2023-03-21T05:24:38;22.98;;;11.55;;
77278;SDS011;66332;50.436;15.378;2023-03-21T05:34:06;25.00;;;12.77;;
77278;SDS011;66332;50.436;15.378;2023-03-21T05:38:47;25.10;;;12.05;;
77278;SDS011;66332;50.436;15.378;2023-03-21T05:43:28;32.63;;;14.73;;
77278;SDS011;66332;50.436;15.378;2023-03-21T05:48:09;38.75;;;15.43;;
77278;SDS011;66332;50.436;15.378;2023-03-21T05:52:51;38.65;;;16.77;;
77278;SDS011;66332;50.436;15.378;2023-03-21T05:57:32;39.47;;;16.73;;
77278;SDS011;66332;50.436;15.378;2023-03-21T06:02:18;40.30;;;16.10;;
77278;SDS011;66332;50.436;15.378;2023-03-21T06:07:00;29.50;;;14.35;;
77278;SDS011;66332;50.436;15.378;2023-03-21T06:11:43;27.20;;;14.10;;
77278;SDS011;66332;50.436;15.378;2023-03-21T06:16:28;29.83;;;15.02;;
77278;SDS011;66332;50.436;15.378;2023-03-21T06:25:50;25.92;;;14.18;;
77278;SDS011;66332;50.436;15.378;2023-03-21T06:30:31;25.20;;;12.38;;
77278;SDS011;66332;50.436;15.378;2023-03-21T06:35:12;23.75;;;11.75;;
77278;SDS011;66332;50.436;15.378;2023-03-21T06:39:52;24.15;;;12.27;;
77278;SDS011;66332;50.436;15.378;2023-03-21T06:44:33;22.90;;;12.10;;
77278;SDS011;66332;50.436;15.378;2023-03-21T06:49:14;24.08;;;11.85;;
77278;SDS011;66332;50.436;15.378;2023-03-21T06:53:55;23.52;;;12.00;;
77278;SDS011;66332;50.436;15.378;2023-03-21T06:58:36;24.05;;;11.70;;
77278;SDS011;66332;50.436;15.378;2023-03-21T07:07:58;22.60;;;10.75;;
77278;SDS011;66332;50.436;15.378;2023-03-21T07:12:40;21.80;;;10.93;;
77278;SDS011;66332;50.436;15.378;2023-03-21T07:17:21;23.23;;;11.50;;
77278;SDS011;66332;50.436;15.378;2023-03-21T07:22:02;23.35;;;11.38;;
77278;SDS011;66332;50.436;15.378;2023-03-21T07:26:44;23.83;;;12.40;;
77278;SDS011;66332;50.436;15.378;2023-03-21T07:31:24;25.77;;;11.33;;
77278;SDS011;66332;50.436;15.378;2023-03-21T07:36:13;23.17;;;12.25;;
77278;SDS011;66332;50.436;15.378;2023-03-21T07:40:57;21.10;;;10.77;;
77278;SDS011;66332;50.436;15.378;2023-03-21T07:45:39;24.65;;;11.98;;
77278;SDS011;66332;50.436;15.378;2023-03-21T07:50:22;23.08;;;11.77;;
77278;SDS011;66332;50.436;15.378;2023-03-21T07:55:02;25.17;;;12.32;;
77278;SDS011;66332;50.436;15.378;2023-03-21T08:04:25;25.02;;;12.73;;
77278;SDS011;66332;50.436;15.378;2023-03-21T08:09:07;23.85;;;12.32;;
77278;SDS011;66332;50.436;15.378;2023-03-21T08:13:48;26.23;;;11.90;;
77278;SDS011;66332;50.436;15.378;2023-03-21T08:18:29;25.83;;;12.73;;
77278;SDS011;66332;50.436;15.378;2023-03-21T08:23:09;23.67;;;11.65;;
77278;SDS011;66332;50.436;15.378;2023-03-21T08:27:50;27.97;;;12.17;;
77278;SDS011;66332;50.436;15.378;2023-03-21T08:32:31;22.25;;;10.65;;
77278;SDS011;66332;50.436;15.378;2023-03-21T08:37:13;21.00;;;10.63;;
77278;SDS011;66332;50.436;15.378;2023-03-21T08:41:53;21.92;;;10.30;;
77278;SDS011;66332;50.436;15.378;2023-03-21T08:46:34;22.70;;;10.05;;
77278;SDS011;66332;50.436;15.378;2023-03-21T08:51:15;22.92;;;10.88;;
77278;SDS011;66332;50.436;15.378;2023-03-21T08:55:57;21.08;;;10.30;;
77278;SDS011;66332;50.436;15.378;2023-03-21T09:00:38;22.60;;;10.70;;
77278;SDS011;66332;50.436;15.378;2023-03-21T09:05:19;21.40;;;10.15;;
77278;SDS011;66332;50.436;15.378;2023-03-21T09:10:02;20.33;;;9.73;;
77278;SDS011;66332;50.436;15.378;2023-03-21T09:14:44;17.55;;;9.40;;
77278;SDS011;66332;50.436;15.378;2023-03-21T09:19:25;19.40;;;9.30;;
77278;SDS011;66332;50.436;15.378;2023-03-21T09:24:07;18.52;;;8.52;;
77278;SDS011;66332;50.436;15.378;2023-03-21T09:28:48;16.63;;;8.48;;
77278;SDS011;66332;50.436;15.378;2023-03-21T09:33:30;17.88;;;8.38;;
77278;SDS011;66332;50.436;15.378;2023-03-21T09:38:12;17.25;;;7.78;;
77278;SDS011;66332;50.436;15.378;2023-03-21T09:43:09;15.85;;;7.78;;
77278;SDS011;66332;50.436;15.378;2023-03-21T09:48:04;19.67;;;8.07;;
77278;SDS011;66332;50.436;15.378;2023-03-21T09:57:46;16.00;;;8.00;;
77278;SDS011;66332;50.436;15.378;2023-03-21T10:02:37;15.77;;;8.25;;
77278;SDS011;66332;50.436;15.378;2023-03-21T10:07:19;15.25;;;7.88;;
77278;SDS011;66332;50.436;15.378;2023-03-21T10:12:02;15.27;;;8.60;;
77278;SDS011;66332;50.436;15.378;2023-03-21T10:21:38;15.35;;;7.82;;
77278;SDS011;66332;50.436;15.378;2023-03-21T10:26:24;15.52;;;8.52;;
77278;SDS011;66332;50.436;15.378;2023-03-21T10:31:07;15.32;;;8.00;;
77278;SDS011;66332;50.436;15.378;2023-03-21T10:35:51;15.20;;;8.32;;
77278;SDS011;66332;50.436;15.378;2023-03-21T10:40:34;14.48;;;8.18;;
77278;SDS011;66332;50.436;15.378;2023-03-21T10:50:01;14.52;;;8.00;;
77278;SDS011;66332;50.436;15.378;2023-03-21T10:54:46;15.30;;;7.30;;
77278;SDS011;66332;50.436;15.378;2023-03-21T10:59:32;18.13;;;9.20;;
77278;SDS011;66332;50.436;15.378;2023-03-21T11:04:34;14.77;;;9.13;;
77278;SDS011;66332;50.436;15.378;2023-03-21T11:09:17;16.52;;;8.02;;
77278;SDS011;66332;50.436;15.378;2023-03-21T11:14:01;13.55;;;7.72;;
77278;SDS011;66332;50.436;15.378;2023-03-21T11:18:48;14.60;;;8.38;;
77278;SDS011;66332;50.436;15.378;2023-03-21T11:23:32;15.98;;;8.07;;
77278;SDS011;66332;50.436;15.378;2023-03-21T11:28:15;15.55;;;7.65;;
77278;SDS011;66332;50.436;15.378;2023-03-21T11:33:02;19.40;;;7.63;;
77278;SDS011;66332;50.436;15.378;2023-03-21T11:37:49;12.40;;;6.50;;
77278;SDS011;66332;50.436;15.378;2023-03-21T11:42:38;10.88;;;6.68;;
77278;SDS011;66332;50.436;15.378;2023-03-21T11:47:22;13.27;;;7.30;;
77278;SDS011;66332;50.436;15.378;2023-03-21T11:52:10;12.95;;;7.20;;
77278;SDS011;66332;50.436;15.378;2023-03-21T11:57:36;12.55;;;7.30;;
77278;SDS011;66332;50.436;15.378;2023-03-21T12:02:37;11.77;;;6.95;;
77278;SDS011;66332;50.436;15.378;2023-03-21T12:07:26;11.57;;;7.20;;
77278;SDS011;66332;50.436;15.378;2023-03-21T12:17:35;12.57;;;7.13;;
77278;SDS011;66332;50.436;15.378;2023-03-21T12:22:34;11.05;;;6.80;;
77278;SDS011;66332;50.436;15.378;2023-03-21T12:37:41;11.85;;;7.13;;
77278;SDS011;66332;50.436;15.378;2023-03-21T12:47:35;12.15;;;7.03;;
77278;SDS011;66332;50.436;15.378;2023-03-21T12:52:21;12.25;;;7.40;;
77278;SDS011;66332;50.436;15.378;2023-03-21T12:57:11;13.15;;;7.43;;
77278;SDS011;66332;50.436;15.378;2023-03-21T13:01:59;12.05;;;7.10;;
77278;SDS011;66332;50.436;15.378;2023-03-21T13:06:44;12.35;;;7.90;;
77278;SDS011;66332;50.436;15.378;2023-03-21T13:11:28;12.45;;;7.72;;
77278;SDS011;66332;50.436;15.378;2023-03-21T13:16:19;16.20;;;7.93;;
77278;SDS011;66332;50.436;15.378;2023-03-21T13:21:17;11.35;;;7.20;;
77278;SDS011;66332;50.436;15.378;2023-03-21T13:26:08;13.30;;;7.43;;
77278;SDS011;66332;50.436;15.378;2023-03-21T13:30:50;11.32;;;7.60;;
77278;SDS011;66332;50.436;15.378;2023-03-21T13:35:35;12.40;;;7.85;;
77278;SDS011;66332;50.436;15.378;2023-03-21T13:40:21;12.70;;;8.27;;
77278;SDS011;66332;50.436;15.378;2023-03-21T13:45:21;12.45;;;8.30;;
77278;SDS011;66332;50.436;15.378;2023-03-21T13:55:02;12.43;;;7.90;;
77278;SDS011;66332;50.436;15.378;2023-03-21T13:59:43;11.38;;;6.57;;
77278;SDS011;66332;50.436;15.378;2023-03-21T14:04:25;10.80;;;7.13;;
77278;SDS011;66332;50.436;15.378;2023-03-21T14:09:11;11.45;;;6.57;;
77278;SDS011;66332;50.436;15.378;2023-03-21T14:14:15;13.10;;;8.15;;
77278;SDS011;66332;50.436;15.378;2023-03-21T14:19:02;9.35;;;6.60;;
77278;SDS011;66332;50.436;15.378;2023-03-21T14:23:44;10.35;;;7.18;;
77278;SDS011;66332;50.436;15.378;2023-03-21T14:28:26;10.70;;;6.72;;
77278;SDS011;66332;50.436;15.378;2023-03-21T14:33:24;10.57;;;6.57;;
77278;SDS011;66332;50.436;15.378;2023-03-21T14:38:07;10.95;;;6.30;;
77278;SDS011;66332;50.436;15.378;2023-03-21T14:43:02;9.48;;;6.50;;
77278;SDS011;66332;50.436;15.378;2023-03-21T14:47:58;11.45;;;7.45;;
77278;SDS011;66332;50.436;15.378;2023-03-21T14:52:43;10.68;;;6.70;;
77278;SDS011;66332;50.436;15.378;2023-03-21T14:57:30;11.25;;;7.25;;
77278;SDS011;66332;50.436;15.378;2023-03-21T15:02:17;10.65;;;7.57;;
77278;SDS011;66332;50.436;15.378;2023-03-21T15:07:26;14.60;;;9.40;;
77278;SDS011;66332;50.436;15.378;2023-03-21T15:12:09;10.18;;;6.35;;
77278;SDS011;66332;50.436;15.378;2023-03-21T15:16:53;12.27;;;7.80;;
77278;SDS011;66332;50.436;15.378;2023-03-21T15:21:36;11.77;;;6.82;;
77278;SDS011;66332;50.436;15.378;2023-03-21T15:26:23;10.48;;;6.43;;
77278;SDS011;66332;50.436;15.378;2023-03-21T15:31:05;9.00;;;5.35;;
77278;SDS011;66332;50.436;15.378;2023-03-21T15:36:07;10.25;;;5.88;;
77278;SDS011;66332;50.436;15.378;2023-03-21T15:46:01;9.23;;;5.35;;
77278;SDS011;66332;50.436;15.378;2023-03-21T15:50:46;10.13;;;6.50;;
77278;SDS011;66332;50.436;15.378;2023-03-21T15:55:46;8.43;;;4.90;;
77278;SDS011;66332;50.436;15.378;2023-03-21T16:00:31;8.70;;;5.30;;
77278;SDS011;66332;50.436;15.378;2023-03-21T16:10:03;8.18;;;4.32;;
77278;SDS011;66332;50.436;15.378;2023-03-21T16:14:44;9.18;;;4.97;;
77278;SDS011;66332;50.436;15.378;2023-03-21T16:19:26;9.00;;;5.05;;
77278;SDS011;66332;50.436;15.378;2023-03-21T16:24:09;7.97;;;4.20;;
77278;SDS011;66332;50.436;15.378;2023-03-21T16:28:50;7.68;;;4.32;;
77278;SDS011;66332;50.436;15.378;2023-03-21T16:33:32;8.90;;;5.30;;
77278;SDS011;66332;50.436;15.378;2023-03-21T16:42:54;8.13;;;5.00;;
77278;SDS011;66332;50.436;15.378;2023-03-21T16:47:35;9.65;;;4.60;;
77278;SDS011;66332;50.436;15.378;2023-03-21T16:52:16;8.35;;;5.00;;
77278;SDS011;66332;50.436;15.378;2023-03-21T16:56:57;10.15;;;5.78;;
77278;SDS011;66332;50.436;15.378;2023-03-21T17:01:39;10.23;;;6.60;;
77278;SDS011;66332;50.436;15.378;2023-03-21T17:06:55;10.30;;;6.28;;
77278;SDS011;66332;50.436;15.378;2023-03-21T17:11:40;17.55;;;9.85;;
77278;SDS011;66332;50.436;15.378;2023-03-21T17:16:25;12.13;;;7.20;;
77278;SDS011;66332;50.436;15.378;2023-03-21T17:21:11;13.95;;;9.45;;
77278;SDS011;66332;50.436;15.378;2023-03-21T17:25:54;11.82;;;8.23;;
77278;SDS011;66332;50.436;15.378;2023-03-21T17:30:35;13.98;;;8.68;;
77278;SDS011;66332;50.436;15.378;2023-03-21T17:35:20;11.60;;;7.57;;
77278;SDS011;66332;50.436;15.378;2023-03-21T17:40:03;12.30;;;8.32;;
77278;SDS011;66332;50.436;15.378;2023-03-21T17:44:46;11.25;;;7.32;;
77278;SDS011;66332;50.436;15.378;2023-03-21T17:49:31;11.80;;;6.22;;
77278;SDS011;66332;50.436;15.378;2023-03-21T17:54:12;9.27;;;5.68;;
77278;SDS011;66332;50.436;15.378;2023-03-21T17:58:54;13.73;;;8.40;;
77278;SDS011;66332;50.436;15.378;2023-03-21T18:03:41;15.50;;;10.88;;
77278;SDS011;66332;50.436;15.378;2023-03-21T18:08:23;16.27;;;10.75;;
77278;SDS011;66332;50.436;15.378;2023-03-21T18:13:04;13.40;;;9.02;;
77278;SDS011;66332;50.436;15.378;2023-03-21T18:17:46;19.63;;;11.70;;
77278;SDS011;66332;50.436;15.378;2023-03-21T18:22:29;17.50;;;11.75;;
77278;SDS011;66332;50.436;15.378;2023-03-21T18:27:11;15.18;;;9.85;;
77278;SDS011;66332;50.436;15.378;2023-03-21T18:31:52;18.50;;;11.05;;
77278;SDS011;66332;50.436;15.378;2023-03-21T18:36:37;14.32;;;9.32;;
77278;SDS011;66332;50.436;15.378;2023-03-21T18:41:18;17.10;;;10.18;;
77278;SDS011;66332;50.436;15.378;2023-03-21T18:46:01;14.27;;;8.55;;
77278;SDS011;66332;50.436;15.378;2023-03-21T18:50:43;13.20;;;8.15;;
77278;SDS011;66332;50.436;15.378;2023-03-21T18:55:25;13.20;;;8.30;;
77278;SDS011;66332;50.436;15.378;2023-03-21T19:00:12;19.23;;;14.75;;
77278;SDS011;66332;50.436;15.378;2023-03-21T19:04:56;16.40;;;10.68;;
77278;SDS011;66332;50.436;15.378;2023-03-21T19:09:41;22.83;;;11.50;;
77278;SDS011;66332;50.436;15.378;2023-03-21T19:14:22;16.73;;;9.35;;
77278;SDS011;66332;50.436;15.378;2023-03-21T19:19:04;16.73;;;9.85;;
77278;SDS011;66332;50.436;15.378;2023-03-21T19:23:46;18.27;;;11.35;;
77278;SDS011;66332;50.436;15.378;2023-03-21T19:28:32;20.50;;;11.27;;
77278;SDS011;66332;50.436;15.378;2023-03-21T19:33:17;19.23;;;11.77;;
77278;SDS011;66332;50.436;15.378;2023-03-21T19:38:24;19.98;;;11.13;;
77278;SDS011;66332;50.436;15.378;2023-03-21T19:43:09;20.00;;;13.25;;
77278;SDS011;66332;50.436;15.378;2023-03-21T19:52:32;16.52;;;9.65;;
77278;SDS011;66332;50.436;15.378;2023-03-21T19:57:17;16.52;;;9.82;;
77278;SDS011;66332;50.436;15.378;2023-03-21T20:06:39;16.80;;;10.00;;
77278;SDS011;66332;50.436;15.378;2023-03-21T20:11:20;17.52;;;11.10;;
77278;SDS011;66332;50.436;15.378;2023-03-21T20:16:05;19.60;;;10.90;;
77278;SDS011;66332;50.436;15.378;2023-03-21T20:20:46;17.00;;;10.85;;
77278;SDS011;66332;50.436;15.378;2023-03-21T20:30:10;16.70;;;10.25;;
77278;SDS011;66332;50.436;15.378;2023-03-21T20:34:56;19.13;;;11.68;;
77278;SDS011;66332;50.436;15.378;2023-03-21T20:39:39;18.23;;;11.25;;
77278;SDS011;66332;50.436;15.378;2023-03-21T20:44:22;19.02;;;11.48;;
77278;SDS011;66332;50.436;15.378;2023-03-21T20:49:04;19.98;;;11.43;;
77278;SDS011;66332;50.436;15.378;2023-03-21T20:53:54;18.80;;;11.57;;
77278;SDS011;66332;50.436;15.378;2023-03-21T20:58:37;19.85;;;12.15;;
77278;SDS011;66332;50.436;15.378;2023-03-21T21:03:22;18.50;;;11.68;;
77278;SDS011;66332;50.436;15.378;2023-03-21T21:08:04;18.52;;;10.48;;
77278;SDS011;66332;50.436;15.378;2023-03-21T21:12:45;17.23;;;10.50;;
77278;SDS011;66332;50.436;15.378;2023-03-21T21:22:10;19.67;;;11.30;;
77278;SDS011;66332;50.436;15.378;2023-03-21T21:26:51;21.23;;;11.07;;
77278;SDS011;66332;50.436;15.378;2023-03-21T21:31:33;19.15;;;10.70;;
77278;SDS011;66332;50.436;15.378;2023-03-21T21:36:14;21.92;;;11.15;;
77278;SDS011;66332;50.436;15.378;2023-03-21T21:40:57;21.25;;;11.43;;
77278;SDS011;66332;50.436;15.378;2023-03-21T21:45:39;22.67;;;11.75;;
77278;SDS011;66332;50.436;15.378;2023-03-21T21:50:21;22.85;;;12.35;;
77278;SDS011;66332;50.436;15.378;2023-03-21T21:55:03;23.63;;;12.65;;
77278;SDS011;66332;50.436;15.378;2023-03-21T21:59:45;25.42;;;13.45;;
77278;SDS011;66332;50.436;15.378;2023-03-21T22:04:26;24.85;;;13.30;;
77278;SDS011;66332;50.436;15.378;2023-03-21T22:09:07;26.42;;;13.13;;
77278;SDS011;66332;50.436;15.378;2023-03-21T22:13:50;26.17;;;14.77;;
77278;SDS011;66332;50.436;15.378;2023-03-21T22:18:31;25.23;;;13.13;;
77278;SDS011;66332;50.436;15.378;2023-03-21T22:23:15;25.10;;;13.80;;
77278;SDS011;66332;50.436;15.378;2023-03-21T22:27:56;26.23;;;14.93;;
77278;SDS011;66332;50.436;15.378;2023-03-21T22:32:37;28.60;;;15.35;;
77278;SDS011;66332;50.436;15.378;2023-03-21T22:37:18;28.25;;;16.38;;
77278;SDS011;66332;50.436;15.378;2023-03-21T22:41:59;28.77;;;15.07;;
77278;SDS011;66332;50.436;15.378;2023-03-21T22:46:42;30.52;;;15.45;;
77278;SDS011;66332;50.436;15.378;2023-03-21T22:51:23;26.08;;;14.63;;
